Portada
METAR-TAF:

METAR-TAF

Aeroports :

Mysore, Índia

latitud: 12-13-48N, longitud: 76-39-21E, altitud: 715 m

Observació

L'informe es va fer fa 30 minuts, a les 14:00 UTC
Vent 3 kt del Nord/Nord-Est
Temperatura 28°C
Humitat 30%
Pressió 1016 hPa
Visibilitat: 8000 m

METAR: VOMY 171400Z 02003KT 8000 NSC 28/09 Q1016

Hora: 20:00 (14:30 UTC)

Pronòstic

L'informe es va fer fa 6 hores i 30 minuts, a les 08:00 UTC
Pronòstic vàlid del 17 a les 09 UTC al 17 a les 18 UTC
Vent 10 kt del Est/Sud-Est
Visibilitat: 8000 m

TAF: VOMY 170800Z 1709/1718 11010KT 8000 NSC

Observacions i pronòstics meteorològics de més de 4000 aeroports (METAR i TAF).

Les estacions disponibles són els punts grocs i vermells al mapa.

Posi el ratolí al punt desitjat per veure el nom de l'estació.

Feu clic per veure les observacions i els pronòstics meteorològics.

Per canviar el mapa: feu clic els botons verds amb una creu de color negre per apropar; al botó verd amb un guió per allunyar la imatge; o en les fletxes verdes per a mapes adjacents.


METAR-TAF: